Delta, Canada
Current Conditions -  °F | °C
As of 2:00 AM on Friday 31 Oct 2014 (Local Time) from CYVR Reporting Station
Overcast Overcast  
Wind Chill: 52°   Ceiling: 13000
Heat Index: 52°   Visibility: 15mi
Dew Point: 50°   Wind: 7mph
Humidity: 94%   Direction: 80°E
Pressure: 29.75"   Gusts: NA
Location:  49.09°N, 123.06°W
Report Text: CYVR 310900Z 08006KT 15SM FEW027 SCT045 OVC130 11/10 A2975 RMK SC1SC2AC5 SLP075
Loading
Personal Weather Stations






























Interactive Weather Map
Tropical Storm Tracking
New forecast layout! Learn more

10-Day Weather Forecast

Advertisements
Track Severe Weather on mobile